Ah Gwah Ching, MN

7:34 AM CST on January 26, 2015 (GMT -0600)
APRSWXNET Walker MN US | Change Station
CLOSE
Current Station
Personal Weather Station
Location: Walker, MN
Elevation: 1483 ft
Nearby Weather Stations
Active Advisory: Special Statement

Elev 1483 ft 47.09 °N, 94.58 °W | Updated 35 minutes ago

Overcast
Overcast
28 °F
Feels Like 28 °F
N
3
Wind Variable Wind from West
Gusts 8.0 mph

Today
High -- | Low -- °F
--% Chance of Precip.
Yesterday
High -- | Low -- °F
Precip. -- in
7:50 AM 5:11 PM
Waxing Crescent, 43% visible
Pressure 29.60 in
Visibility 10.0 miles
Clouds Mostly Cloudy 1500 ft
Overcast 3300 ft
Windchill 28 °F
Dew Point 26 °F
Humidity 92%
Rainfall 0.00 in
Snow Depth Not available.
UV 0 out of 12
Pollen .10 out of 12
Air Quality Not available.
Flu Activity Not available.
METAR KXVG 261316Z AUTO 22004KT 10SM BKN015 OVC033 M02/M03 A2960 RMK AO2

More Conditions Fewer Conditions

Pressure 29.60 in
Visibility 10.0 miles
Clouds Mostly Cloudy 1500 ft
Overcast 3300 ft
Windchill 28 °F
Dew Point 26 °F
Humidity 92%
Rainfall 0.00 in
Snow Depth Not available.
UV 0 out of 12
Pollen .10 out of 12
Air Quality Not available.
Flu Activity Not available.
METAR KXVG 261316Z AUTO 22004KT 10SM BKN015 OVC033 M02/M03 A2960 RMK AO2

More Conditions Fewer Conditions

10-Day Weather Forecast

Almanac

Astronomy

Jan. 26, 2015 Rise Set
Actual Time
Civil Twilight
Nautical Twilight
Astronomical Twilight
Moon
Length of Visible Light
Length of Day
Tomorrow will be .
, % of the Moon is Illuminated

Today's Extremes

State Highs State Lows

Community

WunderPhotos

Upload Photos

1,790,196 photos uploaded!

WunderBlogs® & News

Nearby

Air Quality

  Air Quality AQ Index Pollutant
Not available.

Snow Depth

Station Depth Elevation

Earthquake Activity

City Distance Mag. Time & Date
Minimum magnitude displayed is 2.5.

Coastal Water Temperatures

Place Temperature

Nearby Weather Stations